createdAt,value
2022-11-07T00:01:13.361Z,21.63
2022-11-07T00:03:40.270Z,21.63
2022-11-07T00:06:07.188Z,21.63
2022-11-07T00:08:34.080Z,21.56
2022-11-07T00:11:01.003Z,21.56
2022-11-07T00:13:28.000Z,21.50
2022-11-07T00:15:54.893Z,21.50
2022-11-07T00:18:21.796Z,21.44
2022-11-07T00:20:48.687Z,21.44
2022-11-07T00:23:15.908Z,21.38
2022-11-07T00:25:43.123Z,21.31
2022-11-07T00:28:10.049Z,21.31
2022-11-07T00:30:36.971Z,21.25
2022-11-07T00:33:03.906Z,21.25
2022-11-07T00:35:30.805Z,21.19
2022-11-07T00:37:57.739Z,21.19
2022-11-07T00:40:24.647Z,21.13
2022-11-07T00:42:51.555Z,21.13
2022-11-07T00:45:18.496Z,21.06
2022-11-07T00:47:45.390Z,21.06
2022-11-07T00:50:12.347Z,21.00
2022-11-07T00:52:39.249Z,20.94
2022-11-07T00:55:06.163Z,20.94
2022-11-07T00:57:33.081Z,20.94
2022-11-07T00:59:59.997Z,20.88
2022-11-07T01:02:27.025Z,20.88
2022-11-07T01:04:53.982Z,20.81
2022-11-07T01:07:20.881Z,20.81
2022-11-07T01:09:47.803Z,20.75
2022-11-07T01:12:14.730Z,20.75
2022-11-07T01:14:41.645Z,20.69
2022-11-07T01:17:08.549Z,20.69
2022-11-07T01:19:35.489Z,20.63
2022-11-07T01:22:02.412Z,20.63
2022-11-07T01:24:29.335Z,20.63
2022-11-07T01:26:56.256Z,20.63
2022-11-07T01:29:23.181Z,20.56
2022-11-07T01:31:50.124Z,20.56
2022-11-07T01:34:17.043Z,20.56
2022-11-07T01:36:43.958Z,20.56
2022-11-07T01:39:10.892Z,20.56
2022-11-07T01:41:37.810Z,20.50
2022-11-07T01:44:04.738Z,20.50
2022-11-07T01:46:31.656Z,20.50
2022-11-07T01:48:58.595Z,20.50
2022-11-07T01:51:25.518Z,20.50
2022-11-07T01:53:52.437Z,20.50
2022-11-07T01:56:19.350Z,20.50
2022-11-07T01:58:46.270Z,20.50
2022-11-07T02:01:13.187Z,20.50
2022-11-07T02:03:40.148Z,20.50
2022-11-07T02:06:07.053Z,20.50
2022-11-07T02:08:33.965Z,20.44
2022-11-07T02:11:00.893Z,20.44
2022-11-07T02:13:27.921Z,20.44
2022-11-07T02:15:54.830Z,20.44
2022-11-07T02:18:21.726Z,20.38
2022-11-07T02:20:48.778Z,20.38
2022-11-07T02:23:16.016Z,20.38
2022-11-07T02:25:43.260Z,20.31
2022-11-07T02:28:10.168Z,20.31
2022-11-07T02:30:37.073Z,20.31
2022-11-07T02:33:03.992Z,20.25
2022-11-07T02:35:30.924Z,20.25
2022-11-07T02:37:57.816Z,20.25
2022-11-07T02:40:24.732Z,20.19
2022-11-07T02:42:51.865Z,20.19
2022-11-07T02:45:18.777Z,20.19
2022-11-07T02:47:45.698Z,20.13
2022-11-07T02:50:12.610Z,20.13
2022-11-07T02:52:39.566Z,20.13
2022-11-07T02:55:06.470Z,20.13
2022-11-07T02:57:33.467Z,20.06
2022-11-07T03:00:00.379Z,20.06
2022-11-07T03:02:27.439Z,20.06
2022-11-07T03:04:54.531Z,20.06
2022-11-07T03:07:21.446Z,20.06
2022-11-07T03:09:48.374Z,20.06
2022-11-07T03:12:15.333Z,20.00
2022-11-07T03:14:42.337Z,20.00
2022-11-07T03:17:09.303Z,20.00
2022-11-07T03:19:36.247Z,20.00
2022-11-07T03:22:03.145Z,20.00
2022-11-07T03:24:30.067Z,19.94
2022-11-07T03:26:56.991Z,20.00
2022-11-07T03:29:23.890Z,19.94
2022-11-07T03:31:50.873Z,19.94
2022-11-07T03:34:17.776Z,19.94
2022-11-07T03:36:44.687Z,19.94
2022-11-07T03:39:11.589Z,19.94
2022-11-07T03:41:38.527Z,19.94
2022-11-07T03:44:05.434Z,19.94
2022-11-07T03:46:32.360Z,19.94
2022-11-07T03:48:59.271Z,19.88
2022-11-07T03:51:26.185Z,19.88
2022-11-07T03:53:53.125Z,19.94
2022-11-07T03:56:20.038Z,19.88
2022-11-07T03:58:46.955Z,19.88
2022-11-07T04:01:13.880Z,19.88
2022-11-07T04:03:40.810Z,19.88
2022-11-07T04:06:07.751Z,19.88
2022-11-07T04:08:34.661Z,19.88
2022-11-07T04:11:01.584Z,19.88
2022-11-07T04:13:28.524Z,19.88
2022-11-07T04:15:55.423Z,19.88
2022-11-07T04:18:22.354Z,19.88
2022-11-07T04:20:49.271Z,19.88
2022-11-07T04:23:16.494Z,19.88
2022-11-07T04:25:43.605Z,19.88
2022-11-07T04:28:10.554Z,19.88
2022-11-07T04:30:37.476Z,19.88
2022-11-07T04:33:04.410Z,19.88
2022-11-07T04:35:31.343Z,19.81
2022-11-07T04:37:58.268Z,19.81
2022-11-07T04:40:25.204Z,20.00
2022-11-07T04:42:52.146Z,19.94
2022-11-07T04:45:19.055Z,19.88
2022-11-07T04:47:45.981Z,19.88
2022-11-07T04:50:12.893Z,19.81
2022-11-07T04:52:39.833Z,19.75
2022-11-07T04:55:06.747Z,19.75
2022-11-07T04:57:33.670Z,19.75
2022-11-07T05:00:00.586Z,19.75
2022-11-07T05:02:27.684Z,19.69
2022-11-07T05:04:54.707Z,19.69
2022-11-07T05:07:21.671Z,19.69
2022-11-07T05:09:48.598Z,20.00
2022-11-07T05:12:15.510Z,23.44
2022-11-07T05:14:42.416Z,26.44
2022-11-07T05:17:09.338Z,27.81
2022-11-07T05:19:36.245Z,27.38
2022-11-07T05:22:03.172Z,26.50
2022-11-07T05:24:30.085Z,26.13
2022-11-07T05:26:57.001Z,26.44
2022-11-07T05:29:23.898Z,27.88
2022-11-07T05:31:50.821Z,28.69
2022-11-07T05:34:17.739Z,28.56
2022-11-07T05:36:44.653Z,28.38
2022-11-07T05:39:11.568Z,28.81
2022-11-07T05:41:38.474Z,29.44
2022-11-07T05:44:05.370Z,29.81
2022-11-07T05:46:32.304Z,30.13
2022-11-07T05:49:01.075Z,30.44
2022-11-07T05:51:28.315Z,30.69
2022-11-07T05:53:55.257Z,31.00
2022-11-07T05:56:22.177Z,31.13
2022-11-07T05:58:49.108Z,31.19
2022-11-07T06:01:16.029Z,31.19
2022-11-07T06:03:42.970Z,31.25
2022-11-07T06:06:09.867Z,31.25
2022-11-07T06:08:36.772Z,31.25
2022-11-07T06:11:03.700Z,31.31
2022-11-07T06:13:30.594Z,31.19
2022-11-07T06:15:57.547Z,31.06
2022-11-07T06:18:24.499Z,31.00
2022-11-07T06:20:51.440Z,30.88
2022-11-07T06:23:18.661Z,30.75
2022-11-07T06:25:45.811Z,30.63
2022-11-07T06:28:12.722Z,30.50
2022-11-07T06:30:39.763Z,30.25
2022-11-07T06:33:06.740Z,29.69
2022-11-07T06:35:33.710Z,29.50
2022-11-07T06:38:00.633Z,29.81
2022-11-07T06:40:27.562Z,30.00
2022-11-07T06:42:54.485Z,30.13
2022-11-07T06:45:21.398Z,30.19
2022-11-07T06:47:48.292Z,30.25
2022-11-07T06:50:15.194Z,30.19
2022-11-07T06:52:42.110Z,30.13
2022-11-07T06:55:09.064Z,30.13
2022-11-07T06:57:35.984Z,30.13
2022-11-07T07:00:02.887Z,30.06
2022-11-07T07:02:57.005Z,29.75
2022-11-07T07:05:20.928Z,29.69
2022-11-07T07:07:48.203Z,29.94
2022-11-07T07:10:15.138Z,30.06
2022-11-07T07:12:42.054Z,30.25
2022-11-07T07:15:08.967Z,30.38
2022-11-07T07:17:35.861Z,30.44
2022-11-07T07:20:02.769Z,30.50
2022-11-07T07:22:29.695Z,30.50
2022-11-07T07:24:56.595Z,30.44
2022-11-07T07:27:23.523Z,30.38
2022-11-07T07:29:50.439Z,30.31
2022-11-07T07:32:17.377Z,30.25
2022-11-07T07:34:44.269Z,30.06
2022-11-07T07:37:11.206Z,29.69
2022-11-07T07:39:38.104Z,29.94
2022-11-07T07:42:04.993Z,30.13
2022-11-07T07:44:31.900Z,30.25
2022-11-07T07:46:58.826Z,30.31
2022-11-07T07:49:25.767Z,30.31
2022-11-07T07:51:52.677Z,30.25
2022-11-07T07:54:19.592Z,30.19
2022-11-07T07:56:46.511Z,30.13
2022-11-07T07:59:13.443Z,30.06
2022-11-07T08:01:40.492Z,30.00
2022-11-07T08:04:07.499Z,29.75
2022-11-07T08:06:34.395Z,29.94
2022-11-07T08:09:01.345Z,30.13
2022-11-07T08:11:28.250Z,30.31
2022-11-07T08:13:59.761Z,30.44
2022-11-07T08:16:27.845Z,30.56
2022-11-07T08:18:54.777Z,30.63
2022-11-07T08:21:21.686Z,30.63
2022-11-07T08:23:48.607Z,30.63
2022-11-07T08:26:15.542Z,30.56
2022-11-07T08:28:42.459Z,30.50
2022-11-07T08:31:09.399Z,30.44
2022-11-07T08:33:36.405Z,30.38
2022-11-07T08:36:03.383Z,30.25
2022-11-07T08:38:30.304Z,30.25
2022-11-07T08:40:57.225Z,30.25
2022-11-07T08:43:24.216Z,30.31
2022-11-07T08:45:51.143Z,30.38
2022-11-07T08:48:18.040Z,30.38
2022-11-07T08:50:44.941Z,30.38
2022-11-07T08:53:11.863Z,30.31
2022-11-07T08:55:38.769Z,30.25
2022-11-07T08:58:05.691Z,30.19
2022-11-07T09:00:32.617Z,30.06
2022-11-07T09:05:46.495Z,30.13
2022-11-07T09:08:13.477Z,30.06
2022-11-07T09:10:40.389Z,30.13
2022-11-07T09:13:07.277Z,30.19
2022-11-07T09:15:34.185Z,30.31
2022-11-07T09:18:01.102Z,30.38
2022-11-07T09:20:28.600Z,30.44
2022-11-07T09:22:55.508Z,30.44
2022-11-07T09:25:22.409Z,30.38
2022-11-07T09:27:49.330Z,30.31
2022-11-07T09:30:16.234Z,30.25
2022-11-07T09:32:45.576Z,30.19
2022-11-07T09:35:12.911Z,30.06
2022-11-07T09:37:40.924Z,29.81
2022-11-07T09:40:07.844Z,29.50
2022-11-07T09:42:34.742Z,29.75
2022-11-07T09:45:01.693Z,29.94
2022-11-07T09:47:28.598Z,30.13
2022-11-07T09:49:55.616Z,30.13
2022-11-07T09:52:22.647Z,30.13
2022-11-07T09:54:49.613Z,30.06
2022-11-07T09:57:16.512Z,30.06
2022-11-07T09:59:43.464Z,30.06
2022-11-07T10:02:10.467Z,30.06
2022-11-07T10:04:37.449Z,29.94
2022-11-07T10:07:04.350Z,29.56
2022-11-07T10:09:31.254Z,29.63
2022-11-07T10:11:58.171Z,29.88
2022-11-07T10:14:25.099Z,30.00
2022-11-07T10:16:52.016Z,30.13
2022-11-07T10:19:18.958Z,30.19
2022-11-07T10:21:45.891Z,30.19
2022-11-07T10:24:12.793Z,30.19
2022-11-07T10:26:39.713Z,30.13
2022-11-07T10:29:06.631Z,30.06
2022-11-07T10:31:33.570Z,30.00
2022-11-07T10:34:00.471Z,29.88
2022-11-07T10:36:27.392Z,29.63
2022-11-07T10:38:54.294Z,29.81
2022-11-07T10:41:21.214Z,30.00
2022-11-07T10:43:48.142Z,30.13
2022-11-07T10:46:15.075Z,30.25
2022-11-07T10:48:42.067Z,30.31
2022-11-07T10:51:08.962Z,30.31
2022-11-07T10:53:35.909Z,30.31
2022-11-07T10:56:02.821Z,30.19
2022-11-07T10:58:29.734Z,30.19
2022-11-07T11:00:56.657Z,30.13
2022-11-07T11:03:28.914Z,29.94
2022-11-07T11:05:59.248Z,29.56
2022-11-07T11:08:26.325Z,29.75
2022-11-07T11:10:53.275Z,29.94
2022-11-07T11:13:20.223Z,30.06
2022-11-07T11:15:47.139Z,30.19
2022-11-07T11:18:14.359Z,30.25
2022-11-07T11:20:41.457Z,30.25
2022-11-07T11:23:08.376Z,30.19
2022-11-07T11:25:35.291Z,30.19
2022-11-07T11:28:02.213Z,30.06
2022-11-07T11:30:29.113Z,30.00
2022-11-07T11:32:56.015Z,29.94
2022-11-07T11:35:22.923Z,29.69
2022-11-07T11:37:49.886Z,29.50
2022-11-07T11:40:16.819Z,29.63
2022-11-07T11:42:43.755Z,29.69
2022-11-07T11:45:10.917Z,29.75
2022-11-07T11:47:37.854Z,29.81
2022-11-07T11:50:04.762Z,29.88
2022-11-07T11:52:31.714Z,29.88
2022-11-07T11:54:58.624Z,29.88
2022-11-07T11:57:25.540Z,29.88
2022-11-07T11:59:52.446Z,29.81
2022-11-07T12:02:19.392Z,29.75
2022-11-07T12:04:46.325Z,29.88
2022-11-07T12:07:13.238Z,30.50
2022-11-07T12:09:40.131Z,30.69
2022-11-07T12:12:07.039Z,30.50
2022-11-07T12:14:33.935Z,30.88
2022-11-07T12:17:00.855Z,31.19
2022-11-07T12:19:27.811Z,31.44
2022-11-07T12:21:54.709Z,31.75
2022-11-07T12:24:21.617Z,31.94
2022-11-07T12:26:48.526Z,32.13
2022-11-07T12:29:15.444Z,32.38
2022-11-07T12:31:42.385Z,32.50
2022-11-07T12:34:09.301Z,32.44
2022-11-07T12:36:36.223Z,32.38
2022-11-07T12:39:03.122Z,32.44
2022-11-07T12:41:30.025Z,32.44
2022-11-07T12:43:56.948Z,32.44
2022-11-07T12:46:23.866Z,32.38
2022-11-07T12:48:50.788Z,32.31
2022-11-07T12:51:17.716Z,32.19
2022-11-07T12:53:44.663Z,32.13
2022-11-07T12:56:11.563Z,31.81
2022-11-07T12:58:38.511Z,31.25
2022-11-07T13:01:05.499Z,30.94
2022-11-07T13:03:32.514Z,31.13
2022-11-07T13:05:59.453Z,31.19
2022-11-07T13:08:28.755Z,31.31
2022-11-07T13:10:59.271Z,31.25
2022-11-07T13:13:26.185Z,31.25
2022-11-07T13:21:07.398Z,31.19
2022-11-07T13:23:34.301Z,31.19
2022-11-07T13:26:06.980Z,31.19
2022-11-07T13:28:41.991Z,30.81
2022-11-07T13:31:08.895Z,30.81
2022-11-07T13:33:35.818Z,31.06
2022-11-07T13:36:02.774Z,31.19
2022-11-07T13:38:29.693Z,31.31
2022-11-07T13:40:56.611Z,31.31
2022-11-07T13:43:23.535Z,31.25
2022-11-07T13:45:50.476Z,31.19
2022-11-07T13:48:17.457Z,31.19
2022-11-07T13:50:44.382Z,31.13
2022-11-07T13:53:11.296Z,31.13
2022-11-07T13:55:38.244Z,30.81
2022-11-07T13:58:05.152Z,30.81
2022-11-07T14:00:32.134Z,31.06
2022-11-07T14:02:59.138Z,31.25
2022-11-07T14:05:26.047Z,31.44
2022-11-07T14:07:52.982Z,31.56
2022-11-07T14:10:19.975Z,31.69
2022-11-07T14:12:46.876Z,31.69
2022-11-07T14:15:13.814Z,31.69
2022-11-07T14:17:40.705Z,31.63
2022-11-07T14:20:07.620Z,31.56
2022-11-07T14:22:34.557Z,31.50
2022-11-07T14:25:01.474Z,31.44
2022-11-07T14:27:28.393Z,31.19
2022-11-07T14:29:55.398Z,30.81
2022-11-07T14:32:22.310Z,31.00
2022-11-07T14:34:49.219Z,31.19
2022-11-07T14:37:16.155Z,31.31
2022-11-07T14:39:43.069Z,31.38
2022-11-07T14:42:09.963Z,31.38
2022-11-07T14:47:23.771Z,31.25
2022-11-07T14:49:50.679Z,31.19
2022-11-07T14:52:17.592Z,31.19
2022-11-07T14:54:44.501Z,31.00
2022-11-07T14:57:11.431Z,30.81
2022-11-07T14:59:38.352Z,31.00
2022-11-07T15:02:05.331Z,31.19
2022-11-07T15:04:32.401Z,31.31
2022-11-07T15:06:59.322Z,31.38
2022-11-07T15:09:26.226Z,31.44
2022-11-07T15:11:53.154Z,31.38
2022-11-07T15:14:20.058Z,31.31
2022-11-07T15:16:46.976Z,31.25
2022-11-07T15:19:13.876Z,31.19
2022-11-07T15:21:40.779Z,31.19
2022-11-07T15:24:07.682Z,31.19
2022-11-07T15:26:34.594Z,31.19
2022-11-07T15:29:01.511Z,31.19
2022-11-07T15:31:28.443Z,31.25
2022-11-07T15:33:55.360Z,31.31
2022-11-07T15:36:22.280Z,31.38
2022-11-07T15:38:49.217Z,31.44
2022-11-07T15:41:16.160Z,31.50
2022-11-07T15:43:43.126Z,31.50
2022-11-07T15:46:10.070Z,31.44
2022-11-07T15:48:41.019Z,31.38
2022-11-07T15:51:08.227Z,31.31
2022-11-07T15:53:35.125Z,31.25
2022-11-07T15:56:02.016Z,31.19
2022-11-07T15:58:28.993Z,31.19
2022-11-07T16:00:55.909Z,31.31
2022-11-07T16:03:22.836Z,31.44
2022-11-07T16:05:49.754Z,31.56
2022-11-07T16:08:16.871Z,31.63
2022-11-07T16:10:44.081Z,31.69
2022-11-07T16:13:10.991Z,31.69
2022-11-07T16:15:37.891Z,31.69
2022-11-07T16:18:04.820Z,31.63
2022-11-07T16:20:31.734Z,31.56
2022-11-07T16:22:58.639Z,31.44
2022-11-07T16:25:25.557Z,31.19
2022-11-07T16:27:52.468Z,31.25
2022-11-07T16:30:19.427Z,31.31
2022-11-07T16:32:46.345Z,31.38
2022-11-07T16:35:13.261Z,31.44
2022-11-07T16:37:40.151Z,31.56
2022-11-07T16:40:07.068Z,31.63
2022-11-07T16:42:33.982Z,31.69
2022-11-07T16:45:00.954Z,31.69
2022-11-07T16:47:27.903Z,31.69
2022-11-07T16:49:56.113Z,31.63
2022-11-07T16:52:23.216Z,31.56
2022-11-07T16:54:50.106Z,31.44
2022-11-07T16:57:17.024Z,31.38
2022-11-07T16:59:44.004Z,31.38
2022-11-07T17:02:13.268Z,31.38
2022-11-07T17:04:43.378Z,31.38
2022-11-07T17:07:10.314Z,31.44
2022-11-07T17:09:37.234Z,31.50
2022-11-07T17:12:04.136Z,31.56
2022-11-07T17:14:31.090Z,31.56
2022-11-07T17:17:05.345Z,31.56
2022-11-07T17:19:32.310Z,31.50
2022-11-07T17:21:59.204Z,31.38
2022-11-07T17:24:26.126Z,31.31
2022-11-07T17:26:53.066Z,31.31
2022-11-07T17:29:20.003Z,31.38
2022-11-07T17:31:46.909Z,31.13
2022-11-07T17:34:13.810Z,31.13
2022-11-07T17:36:40.731Z,31.31
2022-11-07T17:39:07.657Z,31.44
2022-11-07T17:41:34.575Z,31.56
2022-11-07T17:44:01.462Z,31.69
2022-11-07T17:46:28.411Z,31.75
2022-11-07T17:48:55.314Z,31.75
2022-11-07T17:51:22.205Z,31.75
2022-11-07T17:53:49.111Z,31.69
2022-11-07T17:56:16.014Z,31.63
2022-11-07T17:58:42.954Z,31.56
2022-11-07T18:01:09.903Z,31.44
2022-11-07T18:03:36.815Z,31.19
2022-11-07T18:06:03.749Z,31.13
2022-11-07T18:08:51.216Z,31.25
2022-11-07T18:11:17.567Z,31.38
2022-11-07T18:13:44.469Z,31.50
2022-11-07T18:16:11.430Z,31.56
2022-11-07T18:18:38.333Z,31.63
2022-11-07T18:21:05.237Z,31.69
2022-11-07T18:23:32.135Z,31.69
2022-11-07T18:25:59.058Z,31.63
2022-11-07T18:28:25.973Z,31.56
2022-11-07T18:30:52.882Z,31.50
2022-11-07T18:33:19.794Z,31.50
2022-11-07T18:35:46.702Z,31.44
2022-11-07T18:38:13.879Z,31.25
2022-11-07T18:40:40.937Z,31.06
2022-11-07T18:43:09.985Z,31.31
2022-11-07T18:45:38.850Z,31.50
2022-11-07T18:48:05.770Z,31.63
2022-11-07T18:50:32.681Z,31.69
2022-11-07T18:52:59.594Z,31.63
2022-11-07T18:55:27.611Z,31.56
2022-11-07T18:57:54.734Z,31.50
2022-11-07T19:00:21.658Z,31.50
2022-11-07T19:02:48.580Z,31.44
2022-11-07T19:05:15.502Z,31.06
2022-11-07T19:07:42.500Z,30.75
2022-11-07T19:10:09.408Z,31.13
2022-11-07T19:12:36.339Z,31.38
2022-11-07T19:15:03.248Z,31.56
2022-11-07T19:17:30.154Z,31.69
2022-11-07T19:19:57.052Z,31.81
2022-11-07T19:22:23.999Z,31.81
2022-11-07T19:24:50.910Z,31.81
2022-11-07T19:27:17.867Z,31.81
2022-11-07T19:29:44.819Z,31.75
2022-11-07T19:32:11.813Z,31.69
2022-11-07T19:34:38.729Z,31.63
2022-11-07T19:37:05.630Z,31.50
2022-11-07T19:39:32.540Z,31.56
2022-11-07T19:41:59.475Z,31.63
2022-11-07T19:44:26.368Z,31.69
2022-11-07T19:46:53.372Z,31.75
2022-11-07T19:49:20.270Z,31.81
2022-11-07T19:51:47.182Z,31.81
2022-11-07T19:54:14.141Z,31.81
2022-11-07T19:56:41.042Z,31.75
2022-11-07T19:59:07.982Z,31.69
2022-11-07T20:01:35.020Z,31.56
2022-11-07T20:04:02.030Z,31.44
2022-11-07T20:06:29.016Z,31.31
2022-11-07T20:08:55.934Z,31.19
2022-11-07T20:11:22.840Z,31.00
2022-11-07T20:13:49.756Z,30.81
2022-11-07T20:16:16.691Z,30.69
2022-11-07T20:18:43.638Z,30.50
2022-11-07T20:21:10.570Z,30.38
2022-11-07T20:23:37.501Z,30.25
2022-11-07T20:26:04.430Z,30.06
2022-11-07T20:28:31.343Z,29.88
2022-11-07T20:30:58.290Z,29.75
2022-11-07T20:33:25.198Z,29.50
2022-11-07T20:35:52.120Z,29.31
2022-11-07T20:38:19.044Z,29.13
2022-11-07T20:40:45.937Z,28.94
2022-11-07T20:43:12.873Z,28.75
2022-11-07T20:45:39.782Z,28.63
2022-11-07T20:48:06.733Z,28.44
2022-11-07T20:50:33.889Z,28.25
2022-11-07T20:53:00.807Z,28.13
2022-11-07T20:55:27.719Z,27.94
2022-11-07T20:57:54.643Z,27.81
2022-11-07T21:00:21.548Z,27.75
2022-11-07T21:02:48.471Z,27.56
2022-11-07T21:05:18.148Z,27.44
2022-11-07T21:07:45.422Z,27.31
2022-11-07T21:10:12.314Z,27.19
2022-11-07T21:12:39.232Z,27.06
2022-11-07T21:15:06.131Z,27.00
2022-11-07T21:17:33.046Z,26.88
2022-11-07T21:19:59.971Z,26.75
2022-11-07T21:22:29.511Z,26.69
2022-11-07T21:24:56.661Z,26.56
2022-11-07T21:27:23.582Z,26.50
2022-11-07T21:29:50.531Z,26.44
2022-11-07T21:32:17.447Z,26.38
2022-11-07T21:34:44.351Z,26.31
2022-11-07T21:37:11.272Z,26.19
2022-11-07T21:39:38.182Z,26.13
2022-11-07T21:42:05.122Z,26.00
2022-11-07T21:44:32.038Z,25.94
2022-11-07T21:46:58.980Z,25.81
2022-11-07T21:49:25.911Z,25.69
2022-11-07T21:51:52.805Z,25.56
2022-11-07T21:54:19.718Z,25.44
2022-11-07T21:56:46.635Z,25.31
2022-11-07T21:59:13.684Z,25.19
2022-11-07T22:01:40.713Z,25.06
2022-11-07T22:04:09.428Z,25.00
2022-11-07T22:06:37.597Z,24.88
2022-11-07T22:09:04.535Z,24.75
2022-11-07T22:11:31.482Z,24.69
2022-11-07T22:13:58.377Z,24.56
2022-11-07T22:16:25.340Z,24.50
2022-11-07T22:18:52.302Z,24.44
2022-11-07T22:21:19.190Z,24.31
2022-11-07T22:23:46.120Z,24.25
2022-11-07T22:26:13.042Z,24.19
2022-11-07T22:28:44.482Z,24.06
2022-11-07T22:31:12.903Z,24.00
2022-11-07T22:33:39.817Z,23.94
2022-11-07T22:36:06.748Z,23.88
2022-11-07T22:38:33.666Z,23.81
2022-11-07T22:41:00.634Z,23.81
2022-11-07T22:43:27.550Z,23.81
2022-11-07T22:45:54.471Z,23.81
2022-11-07T22:48:21.377Z,23.81
2022-11-07T22:50:48.283Z,23.81
2022-11-07T22:53:15.695Z,23.75
2022-11-07T22:55:42.867Z,23.75
2022-11-07T22:58:09.787Z,23.75
2022-11-07T23:00:36.698Z,23.69
2022-11-07T23:03:03.632Z,23.63
2022-11-07T23:05:30.579Z,23.63
2022-11-07T23:07:57.485Z,23.56
2022-11-07T23:10:24.414Z,23.56
2022-11-07T23:12:51.310Z,23.50
2022-11-07T23:15:18.227Z,23.44
2022-11-07T23:17:45.171Z,23.38
2022-11-07T23:20:12.078Z,23.31
2022-11-07T23:22:39.066Z,23.25
2022-11-07T23:25:05.983Z,23.19
2022-11-07T23:27:32.874Z,23.13
2022-11-07T23:29:59.827Z,23.00
2022-11-07T23:32:26.742Z,23.00
2022-11-07T23:34:53.655Z,22.88
2022-11-07T23:37:20.570Z,22.81
2022-11-07T23:39:47.478Z,22.75
2022-11-07T23:42:14.399Z,22.69
2022-11-07T23:44:41.317Z,22.63
2022-11-07T23:47:08.225Z,22.56
2022-11-07T23:49:35.134Z,22.50
2022-11-07T23:52:02.041Z,22.44
2022-11-07T23:54:28.959Z,22.38
2022-11-07T23:56:55.870Z,22.25
2022-11-07T23:59:22.769Z,22.19
